sensor_id;sensor_type;location;lat;lon;timestamp;pressure;altitude;pressure_sealevel;temperature;humidity
29467;BME280;60968;37.490;-122.288;2023-08-07T00:00:58;98637.03;;;30.95;30.11
29467;BME280;60968;37.490;-122.288;2023-08-07T00:03:59;98634.47;;;30.85;29.74
29467;BME280;60968;37.490;-122.288;2023-08-07T00:07:00;98635.50;;;30.58;30.50
29467;BME280;60968;37.490;-122.288;2023-08-07T00:10:01;98632.84;;;30.40;30.72
29467;BME280;60968;37.490;-122.288;2023-08-07T00:13:01;98629.03;;;30.24;30.97
29467;BME280;60968;37.490;-122.288;2023-08-07T00:16:03;98637.03;;;30.16;31.23
29467;BME280;60968;37.490;-122.288;2023-08-07T00:19:04;98634.59;;;30.05;31.65
29467;BME280;60968;37.490;-122.288;2023-08-07T00:22:05;98626.53;;;30.05;31.43
29467;BME280;60968;37.490;-122.288;2023-08-07T00:25:06;98621.66;;;30.00;31.30
29467;BME280;60968;37.490;-122.288;2023-08-07T00:28:07;98622.63;;;29.81;31.90
29467;BME280;60968;37.490;-122.288;2023-08-07T00:31:09;98612.59;;;29.83;32.19
29467;BME280;60968;37.490;-122.288;2023-08-07T00:34:10;98609.34;;;29.80;32.00
29467;BME280;60968;37.490;-122.288;2023-08-07T00:37:11;98619.72;;;29.56;31.33
29467;BME280;60968;37.490;-122.288;2023-08-07T00:40:12;98612.50;;;29.39;31.89
29467;BME280;60968;37.490;-122.288;2023-08-07T00:43:13;98605.97;;;29.41;32.08
29467;BME280;60968;37.490;-122.288;2023-08-07T00:46:14;98605.06;;;29.33;31.79
29467;BME280;60968;37.490;-122.288;2023-08-07T00:49:16;98601.00;;;29.29;31.83
29467;BME280;60968;37.490;-122.288;2023-08-07T00:52:17;98602.13;;;29.26;31.57
29467;BME280;60968;37.490;-122.288;2023-08-07T00:55:19;98595.31;;;29.32;31.81
29467;BME280;60968;37.490;-122.288;2023-08-07T00:58:20;98599.28;;;29.28;31.98
29467;BME280;60968;37.490;-122.288;2023-08-07T01:01:21;98597.31;;;29.30;31.25
29467;BME280;60968;37.490;-122.288;2023-08-07T01:04:22;98591.66;;;29.33;31.59
29467;BME280;60968;37.490;-122.288;2023-08-07T01:07:24;98589.41;;;29.28;31.26
29467;BME280;60968;37.490;-122.288;2023-08-07T01:10:37;98584.91;;;29.29;31.63
29467;BME280;60968;37.490;-122.288;2023-08-07T01:17:15;98584.03;;;29.28;30.53
29467;BME280;60968;37.490;-122.288;2023-08-07T01:20:17;98583.50;;;29.24;30.36
29467;BME280;60968;37.490;-122.288;2023-08-07T01:23:18;98581.00;;;29.13;30.49
29467;BME280;60968;37.490;-122.288;2023-08-07T01:26:20;98582.22;;;29.01;30.41
29467;BME280;60968;37.490;-122.288;2023-08-07T01:29:33;98574.81;;;28.85;30.37
29467;BME280;60968;37.490;-122.288;2023-08-07T01:33:09;98575.06;;;28.64;30.51
29467;BME280;60968;37.490;-122.288;2023-08-07T01:36:11;98569.16;;;28.50;30.38
29467;BME280;60968;37.490;-122.288;2023-08-07T01:39:13;98578.81;;;28.33;31.12
29467;BME280;60968;37.490;-122.288;2023-08-07T01:42:14;98578.41;;;28.18;31.07
29467;BME280;60968;37.490;-122.288;2023-08-07T01:45:25;98578.56;;;28.07;30.43
29467;BME280;60968;37.490;-122.288;2023-08-07T01:48:26;98581.00;;;27.90;30.04
29467;BME280;60968;37.490;-122.288;2023-08-07T01:51:28;98582.66;;;27.82;29.87
29467;BME280;60968;37.490;-122.288;2023-08-07T01:54:29;98581.84;;;27.71;30.25
29467;BME280;60968;37.490;-122.288;2023-08-07T01:57:30;98584.66;;;27.60;31.59
29467;BME280;60968;37.490;-122.288;2023-08-07T02:00:31;98587.31;;;27.41;32.59
29467;BME280;60968;37.490;-122.288;2023-08-07T02:03:32;98593.88;;;27.27;32.30
29467;BME280;60968;37.490;-122.288;2023-08-07T02:06:32;98590.06;;;27.10;32.62
29467;BME280;60968;37.490;-122.288;2023-08-07T02:09:33;98585.25;;;26.94;33.27
29467;BME280;60968;37.490;-122.288;2023-08-07T02:12:34;98588.41;;;26.78;33.59
29467;BME280;60968;37.490;-122.288;2023-08-07T02:15:35;98591.78;;;26.70;33.31
29467;BME280;60968;37.490;-122.288;2023-08-07T02:18:36;98587.19;;;26.61;33.36
29467;BME280;60968;37.490;-122.288;2023-08-07T02:21:37;98587.28;;;26.49;33.20
29467;BME280;60968;37.490;-122.288;2023-08-07T02:24:38;98584.19;;;26.44;32.50
29467;BME280;60968;37.490;-122.288;2023-08-07T02:27:39;98586.72;;;26.46;32.10
29467;BME280;60968;37.490;-122.288;2023-08-07T02:30:40;98586.72;;;26.46;32.11
29467;BME280;60968;37.490;-122.288;2023-08-07T02:33:41;98592.97;;;26.35;32.56
29467;BME280;60968;37.490;-122.288;2023-08-07T02:36:42;98589.94;;;26.18;33.18
29467;BME280;60968;37.490;-122.288;2023-08-07T02:39:43;98597.88;;;26.09;33.41
29467;BME280;60968;37.490;-122.288;2023-08-07T02:42:44;98593.69;;;25.95;33.78
29467;BME280;60968;37.490;-122.288;2023-08-07T02:45:46;98595.31;;;25.86;33.58
29467;BME280;60968;37.490;-122.288;2023-08-07T02:48:47;98600.81;;;25.73;34.67
29467;BME280;60968;37.490;-122.288;2023-08-07T02:51:48;98597.59;;;25.70;34.47
29467;BME280;60968;37.490;-122.288;2023-08-07T02:54:49;98599.13;;;25.72;33.95
29467;BME280;60968;37.490;-122.288;2023-08-07T02:57:50;98587.44;;;25.84;33.75
29467;BME280;60968;37.490;-122.288;2023-08-07T03:00:53;98597.13;;;25.64;34.33
29467;BME280;60968;37.490;-122.288;2023-08-07T03:03:54;98592.63;;;25.65;34.02
29467;BME280;60968;37.490;-122.288;2023-08-07T03:06:55;98597.06;;;25.76;33.54
29467;BME280;60968;37.490;-122.288;2023-08-07T03:09:58;98593.88;;;25.82;33.39
29467;BME280;60968;37.490;-122.288;2023-08-07T03:12:59;98598.63;;;25.78;33.81
29467;BME280;60968;37.490;-122.288;2023-08-07T03:16:05;98599.34;;;25.80;33.79
29467;BME280;60968;37.490;-122.288;2023-08-07T03:19:06;98594.34;;;25.87;33.80
29467;BME280;60968;37.490;-122.288;2023-08-07T03:22:10;98608.25;;;25.70;33.95
29467;BME280;60968;37.490;-122.288;2023-08-07T03:25:11;98605.69;;;25.68;34.27
29467;BME280;60968;37.490;-122.288;2023-08-07T03:28:12;98608.84;;;25.29;35.25
29467;BME280;60968;37.490;-122.288;2023-08-07T03:31:16;98598.84;;;24.88;36.67
29467;BME280;60968;37.490;-122.288;2023-08-07T03:34:18;98605.63;;;24.80;36.70
29467;BME280;60968;37.490;-122.288;2023-08-07T03:37:20;98606.97;;;24.86;36.76
29467;BME280;60968;37.490;-122.288;2023-08-07T03:40:21;98611.47;;;24.86;36.90
29467;BME280;60968;37.490;-122.288;2023-08-07T03:43:23;98612.66;;;24.81;37.01
29467;BME280;60968;37.490;-122.288;2023-08-07T03:46:24;98613.97;;;24.98;37.18
29467;BME280;60968;37.490;-122.288;2023-08-07T03:49:28;98618.56;;;25.19;36.78
29467;BME280;60968;37.490;-122.288;2023-08-07T03:52:29;98626.94;;;25.03;36.93
29467;BME280;60968;37.490;-122.288;2023-08-07T03:55:30;98623.31;;;24.70;37.57
29467;BME280;60968;37.490;-122.288;2023-08-07T03:58:32;98622.34;;;24.60;37.56
29467;BME280;60968;37.490;-122.288;2023-08-07T04:01:34;98624.03;;;24.61;37.51
29467;BME280;60968;37.490;-122.288;2023-08-07T04:04:35;98638.34;;;24.82;37.12
29467;BME280;60968;37.490;-122.288;2023-08-07T04:07:36;98638.69;;;24.66;37.97
29467;BME280;60968;37.490;-122.288;2023-08-07T04:10:38;98630.38;;;24.24;38.89
29467;BME280;60968;37.490;-122.288;2023-08-07T04:13:39;98643.72;;;23.89;39.48
29467;BME280;60968;37.490;-122.288;2023-08-07T04:16:41;98633.25;;;23.86;39.94
29467;BME280;60968;37.490;-122.288;2023-08-07T04:19:42;98641.38;;;23.84;40.42
29467;BME280;60968;37.490;-122.288;2023-08-07T04:22:43;98650.31;;;23.59;41.32
29467;BME280;60968;37.490;-122.288;2023-08-07T04:25:48;98648.41;;;23.24;43.01
29467;BME280;60968;37.490;-122.288;2023-08-07T04:28:49;98640.25;;;23.14;44.71
29467;BME280;60968;37.490;-122.288;2023-08-07T04:31:51;98647.78;;;23.07;46.57
29467;BME280;60968;37.490;-122.288;2023-08-07T04:34:52;98645.13;;;23.07;48.50
29467;BME280;60968;37.490;-122.288;2023-08-07T04:37:53;98650.31;;;23.09;48.91
29467;BME280;60968;37.490;-122.288;2023-08-07T04:40:54;98656.72;;;23.06;51.46
29467;BME280;60968;37.490;-122.288;2023-08-07T04:43:55;98652.78;;;22.99;53.15
29467;BME280;60968;37.490;-122.288;2023-08-07T04:46:56;98658.34;;;22.96;53.36
29467;BME280;60968;37.490;-122.288;2023-08-07T04:49:58;98658.97;;;23.00;53.02
29467;BME280;60968;37.490;-122.288;2023-08-07T04:52:59;98660.16;;;22.95;53.10
29467;BME280;60968;37.490;-122.288;2023-08-07T04:56:02;98659.09;;;22.85;53.73
29467;BME280;60968;37.490;-122.288;2023-08-07T04:59:03;98658.69;;;22.78;53.91
29467;BME280;60968;37.490;-122.288;2023-08-07T05:02:10;98667.16;;;22.71;54.30
29467;BME280;60968;37.490;-122.288;2023-08-07T05:05:11;98661.03;;;22.57;54.61
29467;BME280;60968;37.490;-122.288;2023-08-07T05:08:17;98663.97;;;22.40;52.71
29467;BME280;60968;37.490;-122.288;2023-08-07T05:11:18;98653.28;;;22.01;52.89
29467;BME280;60968;37.490;-122.288;2023-08-07T05:14:19;98663.00;;;21.88;53.09
29467;BME280;60968;37.490;-122.288;2023-08-07T05:17:21;98664.13;;;21.71;53.55
29467;BME280;60968;37.490;-122.288;2023-08-07T05:20:22;98670.69;;;21.51;54.82
29467;BME280;60968;37.490;-122.288;2023-08-07T05:23:24;98667.88;;;21.54;57.02
29467;BME280;60968;37.490;-122.288;2023-08-07T05:26:26;98668.06;;;21.51;59.83
29467;BME280;60968;37.490;-122.288;2023-08-07T05:29:27;98673.00;;;21.42;62.46
29467;BME280;60968;37.490;-122.288;2023-08-07T05:32:28;98662.59;;;21.39;64.52
29467;BME280;60968;37.490;-122.288;2023-08-07T05:35:31;98658.81;;;21.44;64.91
29467;BME280;60968;37.490;-122.288;2023-08-07T05:38:32;98665.97;;;21.41;64.50
29467;BME280;60968;37.490;-122.288;2023-08-07T05:41:35;98664.00;;;21.45;61.04
29467;BME280;60968;37.490;-122.288;2023-08-07T05:44:38;98661.56;;;21.42;58.48
29467;BME280;60968;37.490;-122.288;2023-08-07T05:47:40;98662.19;;;21.46;58.38
29467;BME280;60968;37.490;-122.288;2023-08-07T05:50:46;98650.25;;;21.53;56.82
29467;BME280;60968;37.490;-122.288;2023-08-07T05:53:47;98655.34;;;21.56;56.42
29467;BME280;60968;37.490;-122.288;2023-08-07T05:56:48;98659.50;;;21.60;54.48
29467;BME280;60968;37.490;-122.288;2023-08-07T05:59:49;98649.13;;;21.57;54.30
29467;BME280;60968;37.490;-122.288;2023-08-07T06:02:53;98635.97;;;21.55;53.80
29467;BME280;60968;37.490;-122.288;2023-08-07T06:05:55;98647.59;;;21.67;53.08
29467;BME280;60968;37.490;-122.288;2023-08-07T06:08:57;98644.41;;;21.75;52.25
29467;BME280;60968;37.490;-122.288;2023-08-07T06:11:59;98645.91;;;21.79;51.87
29467;BME280;60968;37.490;-122.288;2023-08-07T06:15:00;98642.50;;;21.77;51.21
29467;BME280;60968;37.490;-122.288;2023-08-07T06:18:01;98644.72;;;21.70;51.19
29467;BME280;60968;37.490;-122.288;2023-08-07T06:21:02;98646.09;;;21.63;51.23
29467;BME280;60968;37.490;-122.288;2023-08-07T06:24:04;98649.44;;;21.52;51.63
29467;BME280;60968;37.490;-122.288;2023-08-07T06:27:05;98651.78;;;21.42;52.01
29467;BME280;60968;37.490;-122.288;2023-08-07T06:30:07;98647.28;;;21.30;52.48
29467;BME280;60968;37.490;-122.288;2023-08-07T06:33:08;98653.50;;;21.29;52.30
29467;BME280;60968;37.490;-122.288;2023-08-07T06:36:09;98656.94;;;21.31;52.83
29467;BME280;60968;37.490;-122.288;2023-08-07T06:39:14;98651.44;;;21.34;52.57
29467;BME280;60968;37.490;-122.288;2023-08-07T06:42:17;98657.88;;;21.30;52.69
29467;BME280;60968;37.490;-122.288;2023-08-07T06:45:18;98655.63;;;21.24;53.75
29467;BME280;60968;37.490;-122.288;2023-08-07T06:48:19;98651.16;;;21.24;53.29
29467;BME280;60968;37.490;-122.288;2023-08-07T06:51:21;98645.88;;;21.24;53.33
29467;BME280;60968;37.490;-122.288;2023-08-07T06:54:22;98652.00;;;21.25;53.69
29467;BME280;60968;37.490;-122.288;2023-08-07T06:57:24;98653.19;;;21.21;54.47
29467;BME280;60968;37.490;-122.288;2023-08-07T07:00:25;98657.06;;;21.01;55.33
29467;BME280;60968;37.490;-122.288;2023-08-07T07:03:26;98648.94;;;20.89;55.84
29467;BME280;60968;37.490;-122.288;2023-08-07T07:06:29;98650.38;;;20.81;56.45
29467;BME280;60968;37.490;-122.288;2023-08-07T07:09:30;98653.97;;;20.80;56.71
29467;BME280;60968;37.490;-122.288;2023-08-07T07:12:31;98656.06;;;20.75;56.42
29467;BME280;60968;37.490;-122.288;2023-08-07T07:15:33;98651.50;;;20.77;55.88
29467;BME280;60968;37.490;-122.288;2023-08-07T07:18:34;98659.84;;;20.85;55.52
29467;BME280;60968;37.490;-122.288;2023-08-07T07:21:35;98656.25;;;20.86;55.05
29467;BME280;60968;37.490;-122.288;2023-08-07T07:24:37;98664.75;;;20.77;54.99
29467;BME280;60968;37.490;-122.288;2023-08-07T07:27:39;98654.03;;;20.64;55.68
29467;BME280;60968;37.490;-122.288;2023-08-07T07:30:40;98661.47;;;20.43;57.52
29467;BME280;60968;37.490;-122.288;2023-08-07T07:33:42;98651.84;;;20.42;57.58
29467;BME280;60968;37.490;-122.288;2023-08-07T07:36:43;98654.66;;;20.38;57.47
29467;BME280;60968;37.490;-122.288;2023-08-07T07:39:45;98651.94;;;20.40;57.19
29467;BME280;60968;37.490;-122.288;2023-08-07T07:42:46;98644.66;;;20.44;57.35
29467;BME280;60968;37.490;-122.288;2023-08-07T07:45:47;98656.38;;;20.39;57.45
29467;BME280;60968;37.490;-122.288;2023-08-07T07:48:48;98649.06;;;20.29;57.81
29467;BME280;60968;37.490;-122.288;2023-08-07T07:51:50;98649.38;;;20.24;57.30
29467;BME280;60968;37.490;-122.288;2023-08-07T07:54:52;98647.66;;;20.23;57.90
29467;BME280;60968;37.490;-122.288;2023-08-07T07:57:54;98649.19;;;20.27;57.89
29467;BME280;60968;37.490;-122.288;2023-08-07T08:00:55;98649.91;;;20.29;57.87
29467;BME280;60968;37.490;-122.288;2023-08-07T08:03:56;98650.69;;;20.17;61.59
29467;BME280;60968;37.490;-122.288;2023-08-07T08:06:59;98649.69;;;20.03;64.09
29467;BME280;60968;37.490;-122.288;2023-08-07T08:10:01;98648.53;;;19.93;62.62
29467;BME280;60968;37.490;-122.288;2023-08-07T08:13:02;98650.94;;;19.82;62.67
29467;BME280;60968;37.490;-122.288;2023-08-07T08:16:05;98641.78;;;19.71;62.96
29467;BME280;60968;37.490;-122.288;2023-08-07T08:19:06;98649.72;;;19.71;63.19
29467;BME280;60968;37.490;-122.288;2023-08-07T08:22:10;98657.75;;;19.70;63.17
29467;BME280;60968;37.490;-122.288;2023-08-07T08:25:12;98652.13;;;19.60;64.55
29467;BME280;60968;37.490;-122.288;2023-08-07T08:28:13;98646.19;;;19.57;65.08
29467;BME280;60968;37.490;-122.288;2023-08-07T08:31:17;98651.28;;;19.60;65.57
29467;BME280;60968;37.490;-122.288;2023-08-07T08:34:18;98645.31;;;19.56;65.98
29467;BME280;60968;37.490;-122.288;2023-08-07T08:37:20;98651.13;;;19.47;67.96
29467;BME280;60968;37.490;-122.288;2023-08-07T08:40:26;98642.38;;;19.30;69.70
29467;BME280;60968;37.490;-122.288;2023-08-07T08:43:35;98639.91;;;19.11;72.30
29467;BME280;60968;37.490;-122.288;2023-08-07T08:46:41;98636.91;;;19.01;73.50
29467;BME280;60968;37.490;-122.288;2023-08-07T08:49:53;98639.63;;;19.00;75.12
29467;BME280;60968;37.490;-122.288;2023-08-07T08:52:59;98633.41;;;19.01;76.35
29467;BME280;60968;37.490;-122.288;2023-08-07T08:56:02;98628.75;;;19.06;77.49
29467;BME280;60968;37.490;-122.288;2023-08-07T08:59:04;98629.41;;;19.10;78.17
29467;BME280;60968;37.490;-122.288;2023-08-07T09:02:09;98629.41;;;19.10;78.35
29467;BME280;60968;37.490;-122.288;2023-08-07T09:05:20;98628.16;;;19.17;77.71
29467;BME280;60968;37.490;-122.288;2023-08-07T09:08:26;98627.81;;;19.23;78.17
29467;BME280;60968;37.490;-122.288;2023-08-07T09:11:29;98618.06;;;19.24;77.86
29467;BME280;60968;37.490;-122.288;2023-08-07T09:14:37;98619.28;;;19.34;77.73
29467;BME280;60968;37.490;-122.288;2023-08-07T09:17:42;98621.13;;;19.32;77.63
29467;BME280;60968;37.490;-122.288;2023-08-07T09:20:48;98614.66;;;19.37;77.38
29467;BME280;60968;37.490;-122.288;2023-08-07T09:23:50;98611.94;;;19.39;78.63
29467;BME280;60968;37.490;-122.288;2023-08-07T09:26:52;98606.31;;;19.29;79.42
29467;BME280;60968;37.490;-122.288;2023-08-07T09:29:54;98602.41;;;19.05;81.81
29467;BME280;60968;37.490;-122.288;2023-08-07T09:33:01;98607.94;;;19.00;84.16
29467;BME280;60968;37.490;-122.288;2023-08-07T09:36:04;98603.25;;;19.05;83.38
29467;BME280;60968;37.490;-122.288;2023-08-07T09:39:07;98607.19;;;19.14;85.99
29467;BME280;60968;37.490;-122.288;2023-08-07T09:42:17;98608.81;;;19.00;91.64
29467;BME280;60968;37.490;-122.288;2023-08-07T09:45:22;98606.66;;;18.91;91.27
29467;BME280;60968;37.490;-122.288;2023-08-07T09:48:24;98606.63;;;18.75;91.77
29467;BME280;60968;37.490;-122.288;2023-08-07T09:51:26;98605.16;;;18.69;85.92
29467;BME280;60968;37.490;-122.288;2023-08-07T09:54:27;98608.84;;;18.83;84.48
29467;BME280;60968;37.490;-122.288;2023-08-07T09:57:30;98605.59;;;18.78;83.38
29467;BME280;60968;37.490;-122.288;2023-08-07T10:00:35;98600.34;;;18.78;82.73
29467;BME280;60968;37.490;-122.288;2023-08-07T10:03:38;98599.47;;;18.77;82.56
29467;BME280;60968;37.490;-122.288;2023-08-07T10:06:39;98594.34;;;18.74;83.54
29467;BME280;60968;37.490;-122.288;2023-08-07T10:09:41;98592.28;;;18.63;85.85
29467;BME280;60968;37.490;-122.288;2023-08-07T10:12:43;98577.63;;;18.58;87.84
29467;BME280;60968;37.490;-122.288;2023-08-07T10:15:47;98575.69;;;18.61;87.33
29467;BME280;60968;37.490;-122.288;2023-08-07T10:18:49;98574.25;;;18.72;84.63
29467;BME280;60968;37.490;-122.288;2023-08-07T10:21:52;98579.53;;;18.72;84.52
29467;BME280;60968;37.490;-122.288;2023-08-07T10:24:59;98572.72;;;18.67;84.13
29467;BME280;60968;37.490;-122.288;2023-08-07T10:28:02;98567.13;;;18.74;82.16
29467;BME280;60968;37.490;-122.288;2023-08-07T10:31:10;98565.06;;;18.79;81.60
29467;BME280;60968;37.490;-122.288;2023-08-07T10:34:15;98564.31;;;18.77;80.37
29467;BME280;60968;37.490;-122.288;2023-08-07T10:37:39;98555.47;;;18.78;79.56
29467;BME280;60968;37.490;-122.288;2023-08-07T10:41:06;98556.81;;;18.85;78.62
29467;BME280;60968;37.490;-122.288;2023-08-07T10:44:24;98554.44;;;18.80;78.30
29467;BME280;60968;37.490;-122.288;2023-08-07T10:47:34;98555.56;;;18.76;78.11
29467;BME280;60968;37.490;-122.288;2023-08-07T10:50:56;98549.94;;;18.66;78.64
29467;BME280;60968;37.490;-122.288;2023-08-07T10:53:57;98545.75;;;18.62;79.12
29467;BME280;60968;37.490;-122.288;2023-08-07T10:57:00;98550.16;;;18.62;79.33
29467;BME280;60968;37.490;-122.288;2023-08-07T11:00:03;98551.13;;;18.61;79.54
29467;BME280;60968;37.490;-122.288;2023-08-07T11:03:05;98543.34;;;18.58;79.19
29467;BME280;60968;37.490;-122.288;2023-08-07T11:06:09;98542.34;;;18.60;78.74
29467;BME280;60968;37.490;-122.288;2023-08-07T11:09:11;98547.69;;;18.59;79.56
29467;BME280;60968;37.490;-122.288;2023-08-07T11:12:13;98551.34;;;18.56;80.21
29467;BME280;60968;37.490;-122.288;2023-08-07T11:15:15;98546.25;;;18.53;80.65
29467;BME280;60968;37.490;-122.288;2023-08-07T11:18:26;98548.13;;;18.67;80.47
29467;BME280;60968;37.490;-122.288;2023-08-07T11:21:30;98551.78;;;18.64;80.51
29467;BME280;60968;37.490;-122.288;2023-08-07T11:24:31;98551.78;;;18.48;81.99
29467;BME280;60968;37.490;-122.288;2023-08-07T11:27:32;98555.69;;;18.41;82.39
29467;BME280;60968;37.490;-122.288;2023-08-07T11:30:35;98563.97;;;18.33;82.45
29467;BME280;60968;37.490;-122.288;2023-08-07T11:33:37;98567.63;;;18.31;82.15
29467;BME280;60968;37.490;-122.288;2023-08-07T11:36:42;98563.69;;;18.22;83.40
29467;BME280;60968;37.490;-122.288;2023-08-07T11:39:44;98572.75;;;18.00;85.76
29467;BME280;60968;37.490;-122.288;2023-08-07T11:42:45;98586.59;;;17.87;88.37
29467;BME280;60968;37.490;-122.288;2023-08-07T11:45:46;98589.22;;;17.69;92.19
29467;BME280;60968;37.490;-122.288;2023-08-07T11:48:47;98601.22;;;17.57;93.14
29467;BME280;60968;37.490;-122.288;2023-08-07T11:51:49;98605.00;;;17.34;96.36
29467;BME280;60968;37.490;-122.288;2023-08-07T11:54:52;98593.44;;;17.37;96.46
29467;BME280;60968;37.490;-122.288;2023-08-07T11:57:54;98614.41;;;17.38;95.61
29467;BME280;60968;37.490;-122.288;2023-08-07T12:00:55;98611.34;;;17.30;97.14
29467;BME280;60968;37.490;-122.288;2023-08-07T12:04:07;98613.72;;;17.35;98.27
29467;BME280;60968;37.490;-122.288;2023-08-07T12:07:17;98616.38;;;17.35;97.67
29467;BME280;60968;37.490;-122.288;2023-08-07T12:10:18;98621.28;;;17.23;98.12
29467;BME280;60968;37.490;-122.288;2023-08-07T12:13:26;98619.00;;;17.15;98.37
29467;BME280;60968;37.490;-122.288;2023-08-07T12:16:34;98613.22;;;17.09;99.31
29467;BME280;60968;37.490;-122.288;2023-08-07T12:19:37;98625.22;;;16.95;100.00
29467;BME280;60968;37.490;-122.288;2023-08-07T12:22:38;98613.38;;;16.85;100.00
29467;BME280;60968;37.490;-122.288;2023-08-07T12:25:40;98615.28;;;16.81;100.00
29467;BME280;60968;37.490;-122.288;2023-08-07T12:28:42;98611.81;;;16.81;100.00
29467;BME280;60968;37.490;-122.288;2023-08-07T12:31:43;98605.41;;;16.87;100.00
29467;BME280;60968;37.490;-122.288;2023-08-07T12:34:48;98598.47;;;17.05;100.00
29467;BME280;60968;37.490;-122.288;2023-08-07T12:37:49;98596.53;;;17.08;100.00
29467;BME280;60968;37.490;-122.288;2023-08-07T12:40:51;98592.41;;;17.03;100.00
29467;BME280;60968;37.490;-122.288;2023-08-07T12:43:53;98587.97;;;17.05;100.00
29467;BME280;60968;37.490;-122.288;2023-08-07T12:46:57;98590.88;;;17.35;99.94
29467;BME280;60968;37.490;-122.288;2023-08-07T12:49:59;98586.72;;;17.66;93.92
29467;BME280;60968;37.490;-122.288;2023-08-07T12:53:00;98589.91;;;17.90;85.74
29467;BME280;60968;37.490;-122.288;2023-08-07T12:56:03;98585.09;;;18.33;75.91
29467;BME280;60968;37.490;-122.288;2023-08-07T12:59:05;98578.00;;;18.67;73.89
29467;BME280;60968;37.490;-122.288;2023-08-07T13:02:07;98576.81;;;18.73;73.17
29467;BME280;60968;37.490;-122.288;2023-08-07T13:05:09;98578.88;;;18.84;71.32
29467;BME280;60968;37.490;-122.288;2023-08-07T13:08:11;98587.06;;;18.95;71.97
29467;BME280;60968;37.490;-122.288;2023-08-07T13:11:12;98585.03;;;19.00;71.10
29467;BME280;60968;37.490;-122.288;2023-08-07T13:14:13;98589.13;;;19.06;69.50
29467;BME280;60968;37.490;-122.288;2023-08-07T13:17:15;98593.03;;;19.15;68.56
29467;BME280;60968;37.490;-122.288;2023-08-07T13:20:16;98587.25;;;19.24;67.76
29467;BME280;60968;37.490;-122.288;2023-08-07T13:23:17;98596.44;;;19.33;68.04
29467;BME280;60968;37.490;-122.288;2023-08-07T13:26:21;98589.97;;;19.39;67.48
29467;BME280;60968;37.490;-122.288;2023-08-07T13:29:22;98595.25;;;19.39;67.00
29467;BME280;60968;37.490;-122.288;2023-08-07T13:32:26;98598.63;;;19.41;67.64
29467;BME280;60968;37.490;-122.288;2023-08-07T13:35:27;98594.22;;;19.41;68.70
29467;BME280;60968;37.490;-122.288;2023-08-07T13:38:28;98594.88;;;19.45;66.61
29467;BME280;60968;37.490;-122.288;2023-08-07T13:41:30;98604.03;;;19.69;64.76
29467;BME280;60968;37.490;-122.288;2023-08-07T13:44:32;98601.47;;;19.84;63.97
29467;BME280;60968;37.490;-122.288;2023-08-07T13:47:34;98598.00;;;19.83;64.35
29467;BME280;60968;37.490;-122.288;2023-08-07T13:50:36;98608.97;;;19.92;63.93
29467;BME280;60968;37.490;-122.288;2023-08-07T13:53:37;98614.88;;;19.81;65.95
29467;BME280;60968;37.490;-122.288;2023-08-07T13:56:39;98613.22;;;19.78;66.62
29467;BME280;60968;37.490;-122.288;2023-08-07T13:59:40;98618.00;;;19.71;68.33
29467;BME280;60968;37.490;-122.288;2023-08-07T14:02:44;98621.09;;;19.64;73.76
29467;BME280;60968;37.490;-122.288;2023-08-07T14:05:45;98620.88;;;19.52;71.07
29467;BME280;60968;37.490;-122.288;2023-08-07T14:08:48;98622.41;;;19.57;70.10
29467;BME280;60968;37.490;-122.288;2023-08-07T14:11:50;98629.47;;;19.56;73.54
29467;BME280;60968;37.490;-122.288;2023-08-07T14:14:51;98625.03;;;19.57;73.36
29467;BME280;60968;37.490;-122.288;2023-08-07T14:17:53;98633.63;;;19.60;72.70
29467;BME280;60968;37.490;-122.288;2023-08-07T14:20:55;98630.81;;;19.63;75.77
29467;BME280;60968;37.490;-122.288;2023-08-07T14:24:03;98648.38;;;19.64;76.38
29467;BME280;60968;37.490;-122.288;2023-08-07T14:27:05;98638.69;;;19.49;78.27
29467;BME280;60968;37.490;-122.288;2023-08-07T14:30:07;98644.75;;;19.51;78.35
29467;BME280;60968;37.490;-122.288;2023-08-07T14:33:08;98659.31;;;19.42;79.27
29467;BME280;60968;37.490;-122.288;2023-08-07T14:36:09;98654.63;;;19.31;81.66
29467;BME280;60968;37.490;-122.288;2023-08-07T14:39:14;98663.75;;;19.26;82.23
29467;BME280;60968;37.490;-122.288;2023-08-07T14:42:18;98659.50;;;19.23;82.55
29467;BME280;60968;37.490;-122.288;2023-08-07T14:45:22;98660.84;;;19.30;84.14
29467;BME280;60968;37.490;-122.288;2023-08-07T14:48:27;98668.34;;;19.54;83.59
29467;BME280;60968;37.490;-122.288;2023-08-07T14:51:28;98670.03;;;19.71;82.90
29467;BME280;60968;37.490;-122.288;2023-08-07T14:54:29;98663.91;;;19.70;84.67
29467;BME280;60968;37.490;-122.288;2023-08-07T14:57:32;98667.97;;;19.76;84.19
29467;BME280;60968;37.490;-122.288;2023-08-07T15:00:35;98671.63;;;19.90;85.21
29467;BME280;60968;37.490;-122.288;2023-08-07T15:03:38;98671.72;;;19.88;85.54
29467;BME280;60968;37.490;-122.288;2023-08-07T15:06:41;98668.25;;;19.87;87.08
29467;BME280;60968;37.490;-122.288;2023-08-07T15:09:42;98668.34;;;19.86;87.71
29467;BME280;60968;37.490;-122.288;2023-08-07T15:12:44;98670.25;;;19.98;88.08
29467;BME280;60968;37.490;-122.288;2023-08-07T15:15:46;98671.16;;;20.13;86.97
29467;BME280;60968;37.490;-122.288;2023-08-07T15:18:49;98683.28;;;20.32;85.28
29467;BME280;60968;37.490;-122.288;2023-08-07T15:21:51;98681.53;;;20.47;85.34
29467;BME280;60968;37.490;-122.288;2023-08-07T15:24:52;98675.72;;;20.85;84.05
29467;BME280;60968;37.490;-122.288;2023-08-07T15:27:54;98681.19;;;21.11;82.47
29467;BME280;60968;37.490;-122.288;2023-08-07T15:30:56;98684.78;;;21.10;81.66
29467;BME280;60968;37.490;-122.288;2023-08-07T15:33:57;98684.31;;;21.17;80.44